sensor_id;sensor_type;location;lat;lon;timestamp;pressure;altitude;pressure_sealevel;temperature;humidity
47763;BME280;33526;42.690;23.322;2023-11-19T00:01:45;95048.31;;;3.14;100.00
47763;BME280;33526;42.690;23.322;2023-11-19T00:04:12;95057.09;;;3.09;99.50
47763;BME280;33526;42.690;23.322;2023-11-19T00:06:37;95052.03;;;3.03;100.00
47763;BME280;33526;42.690;23.322;2023-11-19T00:09:02;95056.03;;;2.99;100.00
47763;BME280;33526;42.690;23.322;2023-11-19T00:11:29;95047.09;;;2.91;100.00
47763;BME280;33526;42.690;23.322;2023-11-19T00:13:54;95047.09;;;2.91;100.00
47763;BME280;33526;42.690;23.322;2023-11-19T00:16:19;95043.88;;;2.96;100.00
47763;BME280;33526;42.690;23.322;2023-11-19T00:18:44;95053.41;;;2.92;100.00
47763;BME280;33526;42.690;23.322;2023-11-19T00:21:10;95047.81;;;2.95;99.74
47763;BME280;33526;42.690;23.322;2023-11-19T00:23:35;95054.91;;;2.96;100.00
47763;BME280;33526;42.690;23.322;2023-11-19T00:26:00;95061.28;;;2.93;100.00
47763;BME280;33526;42.690;23.322;2023-11-19T00:28:26;95069.91;;;2.95;100.00
47763;BME280;33526;42.690;23.322;2023-11-19T00:30:51;95058.94;;;2.92;100.00
47763;BME280;33526;42.690;23.322;2023-11-19T00:33:16;95062.72;;;3.01;99.63
47763;BME280;33526;42.690;23.322;2023-11-19T00:35:42;95054.09;;;2.99;99.34
47763;BME280;33526;42.690;23.322;2023-11-19T00:38:07;95061.16;;;3.00;99.74
47763;BME280;33526;42.690;23.322;2023-11-19T00:40:32;95059.56;;;3.03;100.00
47763;BME280;33526;42.690;23.322;2023-11-19T00:42:57;95061.22;;;2.97;99.84
47763;BME280;33526;42.690;23.322;2023-11-19T00:45:23;95069.09;;;2.98;100.00
47763;BME280;33526;42.690;23.322;2023-11-19T00:47:48;95064.38;;;2.95;100.00
47763;BME280;33526;42.690;23.322;2023-11-19T00:50:14;95055.38;;;2.91;100.00
47763;BME280;33526;42.690;23.322;2023-11-19T00:52:39;95068.47;;;2.87;100.00
47763;BME280;33526;42.690;23.322;2023-11-19T00:55:05;95070.13;;;2.81;100.00
47763;BME280;33526;42.690;23.322;2023-11-19T00:57:31;95061.44;;;2.82;100.00
47763;BME280;33526;42.690;23.322;2023-11-19T01:00:00;95061.50;;;2.79;100.00
47763;BME280;33526;42.690;23.322;2023-11-19T01:02:26;95064.72;;;2.74;100.00
47763;BME280;33526;42.690;23.322;2023-11-19T01:04:51;95059.09;;;2.81;100.00
47763;BME280;33526;42.690;23.322;2023-11-19T01:07:17;95070.53;;;2.83;100.00
47763;BME280;33526;42.690;23.322;2023-11-19T01:09:42;95068.22;;;2.78;100.00
47763;BME280;33526;42.690;23.322;2023-11-19T01:12:08;95078.41;;;2.81;100.00
47763;BME280;33526;42.690;23.322;2023-11-19T01:14:37;95079.22;;;2.81;100.00
47763;BME280;33526;42.690;23.322;2023-11-19T01:17:02;95084.28;;;2.86;100.00
47763;BME280;33526;42.690;23.322;2023-11-19T01:19:29;95072.78;;;2.88;100.00
47763;BME280;33526;42.690;23.322;2023-11-19T01:21:55;95069.25;;;2.87;100.00
47763;BME280;33526;42.690;23.322;2023-11-19T01:24:21;95069.25;;;2.87;100.00
47763;BME280;33526;42.690;23.322;2023-11-19T01:26:46;95076.78;;;2.87;100.00
47763;BME280;33526;42.690;23.322;2023-11-19T01:29:12;95066.19;;;2.82;100.00
47763;BME280;33526;42.690;23.322;2023-11-19T01:31:41;95061.81;;;2.84;100.00
47763;BME280;33526;42.690;23.322;2023-11-19T01:34:06;95086.59;;;2.88;100.00
47763;BME280;33526;42.690;23.322;2023-11-19T01:36:35;95093.75;;;2.85;100.00
47763;BME280;33526;42.690;23.322;2023-11-19T01:39:00;95093.69;;;2.89;100.00
47763;BME280;33526;42.690;23.322;2023-11-19T01:41:25;95083.38;;;2.93;100.00
47763;BME280;33526;42.690;23.322;2023-11-19T01:43:51;95077.91;;;2.90;100.00
47763;BME280;33526;42.690;23.322;2023-11-19T01:46:16;95082.66;;;2.89;99.09
47763;BME280;33526;42.690;23.322;2023-11-19T01:48:43;95083.84;;;2.88;100.00
47763;BME280;33526;42.690;23.322;2023-11-19T01:51:09;95081.72;;;2.72;100.00
47763;BME280;33526;42.690;23.322;2023-11-19T01:53:35;95085.97;;;2.77;99.36
47763;BME280;33526;42.690;23.322;2023-11-19T01:56:02;95086.44;;;2.72;99.25
47763;BME280;33526;42.690;23.322;2023-11-19T01:58:27;95085.31;;;2.69;98.71
47763;BME280;33526;42.690;23.322;2023-11-19T02:00:55;95077.25;;;2.55;97.81
47763;BME280;33526;42.690;23.322;2023-11-19T02:03:21;95077.19;;;2.58;99.17
47763;BME280;33526;42.690;23.322;2023-11-19T02:05:47;95078.38;;;2.57;97.56
47763;BME280;33526;42.690;23.322;2023-11-19T02:08:14;95079.19;;;2.58;98.28
47763;BME280;33526;42.690;23.322;2023-11-19T02:10:39;95069.31;;;2.57;97.01
47763;BME280;33526;42.690;23.322;2023-11-19T02:13:04;95067.34;;;2.57;98.02
47763;BME280;33526;42.690;23.322;2023-11-19T02:15:31;95061.81;;;2.57;97.12
47763;BME280;33526;42.690;23.322;2023-11-19T02:17:56;95061.91;;;2.50;98.41
47763;BME280;33526;42.690;23.322;2023-11-19T02:20:22;95076.94;;;2.49;98.33
47763;BME280;33526;42.690;23.322;2023-11-19T02:22:47;95078.47;;;2.50;98.62
47763;BME280;33526;42.690;23.322;2023-11-19T02:25:28;95076.63;;;2.43;98.09
47763;BME280;33526;42.690;23.322;2023-11-19T02:27:55;95073.91;;;2.40;99.20
47763;BME280;33526;42.690;23.322;2023-11-19T02:30:22;95077.84;;;2.39;98.37
47763;BME280;33526;42.690;23.322;2023-11-19T02:32:52;95075.09;;;2.39;99.10
47763;BME280;33526;42.690;23.322;2023-11-19T02:35:17;95070.41;;;2.36;99.61
47763;BME280;33526;42.690;23.322;2023-11-19T02:37:42;95066.09;;;2.35;99.98
47763;BME280;33526;42.690;23.322;2023-11-19T02:40:07;95062.91;;;2.36;99.37
47763;BME280;33526;42.690;23.322;2023-11-19T02:42:34;95075.56;;;2.34;100.00
47763;BME280;33526;42.690;23.322;2023-11-19T02:44:59;95066.97;;;2.28;100.00
47763;BME280;33526;42.690;23.322;2023-11-19T02:47:24;95063.44;;;2.27;100.00
47763;BME280;33526;42.690;23.322;2023-11-19T02:49:50;95080.06;;;2.20;100.00
47763;BME280;33526;42.690;23.322;2023-11-19T02:52:15;95077.78;;;2.15;100.00
47763;BME280;33526;42.690;23.322;2023-11-19T02:54:40;95074.97;;;2.19;100.00
47763;BME280;33526;42.690;23.322;2023-11-19T02:57:06;95073.41;;;2.18;100.00
47763;BME280;33526;42.690;23.322;2023-11-19T02:59:35;95054.63;;;2.09;100.00
47763;BME280;33526;42.690;23.322;2023-11-19T03:02:04;95060.50;;;2.11;100.00
47763;BME280;33526;42.690;23.322;2023-11-19T03:04:31;95058.56;;;2.08;100.00
47763;BME280;33526;42.690;23.322;2023-11-19T03:06:56;95055.78;;;2.08;100.00
47763;BME280;33526;42.690;23.322;2023-11-19T03:09:23;95063.66;;;2.09;100.00
47763;BME280;33526;42.690;23.322;2023-11-19T03:11:49;95070.38;;;2.08;100.00
47763;BME280;33526;42.690;23.322;2023-11-19T03:14:14;95080.63;;;2.08;100.00
47763;BME280;33526;42.690;23.322;2023-11-19T03:16:40;95082.16;;;2.13;100.00
47763;BME280;33526;42.690;23.322;2023-11-19T03:19:05;95084.97;;;2.09;100.00
47763;BME280;33526;42.690;23.322;2023-11-19T03:21:30;95080.53;;;2.15;100.00
47763;BME280;33526;42.690;23.322;2023-11-19T03:23:56;95080.53;;;2.15;100.00
47763;BME280;33526;42.690;23.322;2023-11-19T03:26:25;95081.25;;;2.19;100.00
47763;BME280;33526;42.690;23.322;2023-11-19T03:28:50;95076.19;;;2.14;100.00
47763;BME280;33526;42.690;23.322;2023-11-19T03:31:15;95082.94;;;2.13;100.00
47763;BME280;33526;42.690;23.322;2023-11-19T03:33:41;95077.88;;;2.08;100.00
47763;BME280;33526;42.690;23.322;2023-11-19T03:36:06;95071.97;;;2.06;100.00
47763;BME280;33526;42.690;23.322;2023-11-19T03:38:32;95067.66;;;2.05;100.00
47763;BME280;33526;42.690;23.322;2023-11-19T03:40:57;95083.44;;;2.04;100.00
47763;BME280;33526;42.690;23.322;2023-11-19T03:43:24;95081.44;;;2.05;100.00
47763;BME280;33526;42.690;23.322;2023-11-19T03:45:49;95094.03;;;2.06;100.00
47763;BME280;33526;42.690;23.322;2023-11-19T03:48:14;95093.22;;;2.09;100.00
47763;BME280;33526;42.690;23.322;2023-11-19T03:50:43;95106.63;;;2.07;100.00
47763;BME280;33526;42.690;23.322;2023-11-19T03:53:09;95107.09;;;2.02;100.00
47763;BME280;33526;42.690;23.322;2023-11-19T03:55:34;95114.94;;;2.03;100.00
47763;BME280;33526;42.690;23.322;2023-11-19T03:58:00;95117.75;;;2.00;100.00
47763;BME280;33526;42.690;23.322;2023-11-19T04:00:25;95101.16;;;2.03;100.00
47763;BME280;33526;42.690;23.322;2023-11-19T04:02:50;95112.16;;;2.07;100.00
47763;BME280;33526;42.690;23.322;2023-11-19T04:05:15;95108.97;;;2.08;100.00
47763;BME280;33526;42.690;23.322;2023-11-19T04:07:41;95122.81;;;2.05;100.00
47763;BME280;33526;42.690;23.322;2023-11-19T04:10:06;95134.88;;;2.18;100.00
47763;BME280;33526;42.690;23.322;2023-11-19T04:12:31;95132.84;;;2.22;100.00
47763;BME280;33526;42.690;23.322;2023-11-19T04:14:57;95137.53;;;2.29;100.00
47763;BME280;33526;42.690;23.322;2023-11-19T04:17:22;95144.53;;;2.34;100.00
47763;BME280;33526;42.690;23.322;2023-11-19T04:19:48;95147.28;;;2.34;100.00
47763;BME280;33526;42.690;23.322;2023-11-19T04:22:13;95144.50;;;2.37;99.48
47763;BME280;33526;42.690;23.322;2023-11-19T04:24:39;95152.72;;;2.41;99.18
47763;BME280;33526;42.690;23.322;2023-11-19T04:27:05;95140.97;;;2.37;98.28
47763;BME280;33526;42.690;23.322;2023-11-19T04:29:31;95138.56;;;2.39;99.91
47763;BME280;33526;42.690;23.322;2023-11-19T04:31:56;95151.19;;;2.40;98.11
47763;BME280;33526;42.690;23.322;2023-11-19T04:34:22;95149.97;;;2.41;98.93
47763;BME280;33526;42.690;23.322;2023-11-19T04:36:47;95159.88;;;2.38;100.00
47763;BME280;33526;42.690;23.322;2023-11-19T04:39:14;95155.50;;;2.41;100.00
47763;BME280;33526;42.690;23.322;2023-11-19T04:41:49;95157.38;;;2.47;98.75
47763;BME280;33526;42.690;23.322;2023-11-19T04:44:18;95159.00;;;2.45;97.71
47763;BME280;33526;42.690;23.322;2023-11-19T04:46:44;95159.78;;;2.45;99.24
47763;BME280;33526;42.690;23.322;2023-11-19T04:49:10;95152.38;;;2.39;98.32
47763;BME280;33526;42.690;23.322;2023-11-19T04:51:40;95160.19;;;2.44;97.95
47763;BME280;33526;42.690;23.322;2023-11-19T04:54:07;95162.22;;;2.40;99.16
47763;BME280;33526;42.690;23.322;2023-11-19T04:56:38;95170.81;;;2.45;99.18
47763;BME280;33526;42.690;23.322;2023-11-19T04:59:05;95160.56;;;2.46;98.65
47763;BME280;33526;42.690;23.322;2023-11-19T05:01:31;95160.56;;;2.46;97.35
47763;BME280;33526;42.690;23.322;2023-11-19T05:03:57;95171.88;;;2.55;97.66
47763;BME280;33526;42.690;23.322;2023-11-19T05:06:28;95187.34;;;2.49;97.60
47763;BME280;33526;42.690;23.322;2023-11-19T05:08:56;95195.16;;;2.54;97.54
47763;BME280;33526;42.690;23.322;2023-11-19T05:11:22;95192.78;;;2.56;96.68
47763;BME280;33526;42.690;23.322;2023-11-19T05:13:47;95198.38;;;2.49;96.76
47763;BME280;33526;42.690;23.322;2023-11-19T05:16:12;95183.44;;;2.43;95.93
47763;BME280;33526;42.690;23.322;2023-11-19T05:18:42;95189.81;;;2.40;97.48
47763;BME280;33526;42.690;23.322;2023-11-19T05:21:07;95179.50;;;2.44;96.36
47763;BME280;33526;42.690;23.322;2023-11-19T05:23:33;95184.34;;;2.36;96.65
47763;BME280;33526;42.690;23.322;2023-11-19T05:26:01;95190.56;;;2.44;97.24
47763;BME280;33526;42.690;23.322;2023-11-19T05:28:27;95190.50;;;2.47;96.72
47763;BME280;33526;42.690;23.322;2023-11-19T05:30:52;95177.84;;;2.50;96.23
47763;BME280;33526;42.690;23.322;2023-11-19T05:33:18;95181.38;;;2.54;95.09
47763;BME280;33526;42.690;23.322;2023-11-19T05:35:43;95184.06;;;2.58;95.01
47763;BME280;33526;42.690;23.322;2023-11-19T05:38:09;95190.38;;;2.58;94.25
47763;BME280;33526;42.690;23.322;2023-11-19T05:40:35;95184.13;;;2.54;96.00
47763;BME280;33526;42.690;23.322;2023-11-19T05:43:01;95193.50;;;2.60;95.85
47763;BME280;33526;42.690;23.322;2023-11-19T05:45:26;95186.44;;;2.59;95.06
47763;BME280;33526;42.690;23.322;2023-11-19T05:47:52;95198.28;;;2.56;94.86
47763;BME280;33526;42.690;23.322;2023-11-19T05:50:17;95201.06;;;2.56;95.04
47763;BME280;33526;42.690;23.322;2023-11-19T05:52:43;95199.84;;;2.57;95.38
47763;BME280;33526;42.690;23.322;2023-11-19T05:55:08;95202.59;;;2.57;94.71
47763;BME280;33526;42.690;23.322;2023-11-19T05:57:37;95195.81;;;2.65;94.35
47763;BME280;33526;42.690;23.322;2023-11-19T06:00:03;95198.28;;;2.56;95.08
47763;BME280;33526;42.690;23.322;2023-11-19T06:02:32;95208.56;;;2.56;95.56
47763;BME280;33526;42.690;23.322;2023-11-19T06:04:59;95215.75;;;2.46;96.06
47763;BME280;33526;42.690;23.322;2023-11-19T06:07:24;95209.41;;;2.49;95.86
47763;BME280;33526;42.690;23.322;2023-11-19T06:09:50;95225.16;;;2.52;95.78
47763;BME280;33526;42.690;23.322;2023-11-19T06:12:15;95223.53;;;2.55;95.19
47763;BME280;33526;42.690;23.322;2023-11-19T06:14:41;95229.16;;;2.47;95.87
47763;BME280;33526;42.690;23.322;2023-11-19T06:17:06;95222.09;;;2.43;95.47
47763;BME280;33526;42.690;23.322;2023-11-19T06:19:33;95225.31;;;2.38;96.00
47763;BME280;33526;42.690;23.322;2023-11-19T06:21:59;95223.72;;;2.40;96.61
47763;BME280;33526;42.690;23.322;2023-11-19T06:24:25;95208.72;;;2.41;96.46
47763;BME280;33526;42.690;23.322;2023-11-19T06:26:50;95220.53;;;2.42;96.00
47763;BME280;33526;42.690;23.322;2023-11-19T06:29:15;95216.56;;;2.43;96.51
47763;BME280;33526;42.690;23.322;2023-11-19T06:31:44;95213.00;;;2.46;96.57
47763;BME280;33526;42.690;23.322;2023-11-19T06:34:10;95213.34;;;2.48;97.54
47763;BME280;33526;42.690;23.322;2023-11-19T06:36:35;95214.13;;;2.52;95.33
47763;BME280;33526;42.690;23.322;2023-11-19T06:39:00;95226.63;;;2.60;95.60
47763;BME280;33526;42.690;23.322;2023-11-19T06:41:26;95229.75;;;2.62;95.70
47763;BME280;33526;42.690;23.322;2023-11-19T06:43:52;95218.75;;;2.59;94.34
47763;BME280;33526;42.690;23.322;2023-11-19T06:46:17;95219.56;;;2.59;94.25
47763;BME280;33526;42.690;23.322;2023-11-19T06:48:43;95228.25;;;2.58;95.26
47763;BME280;33526;42.690;23.322;2023-11-19T06:51:09;95228.56;;;2.63;95.27
47763;BME280;33526;42.690;23.322;2023-11-19T06:53:36;95216.19;;;2.75;93.37
47763;BME280;33526;42.690;23.322;2023-11-19T06:56:01;95220.59;;;2.69;91.81
47763;BME280;33526;42.690;23.322;2023-11-19T06:58:31;95228.25;;;2.58;93.89
47763;BME280;33526;42.690;23.322;2023-11-19T07:01:01;95235.28;;;2.62;93.58
47763;BME280;33526;42.690;23.322;2023-11-19T07:03:26;95230.97;;;2.61;93.15
47763;BME280;33526;42.690;23.322;2023-11-19T07:05:53;95235.69;;;2.61;93.14
47763;BME280;33526;42.690;23.322;2023-11-19T07:08:20;95230.47;;;2.66;93.33
47763;BME280;33526;42.690;23.322;2023-11-19T07:10:46;95235.06;;;2.80;91.23
47763;BME280;33526;42.690;23.322;2023-11-19T07:13:12;95247.44;;;2.68;90.91
47763;BME280;33526;42.690;23.322;2023-11-19T07:15:37;95236.13;;;2.59;91.23
47763;BME280;33526;42.690;23.322;2023-11-19T07:18:03;95231.47;;;2.53;91.16
47763;BME280;33526;42.690;23.322;2023-11-19T07:20:28;95243.63;;;2.55;91.99
47763;BME280;33526;42.690;23.322;2023-11-19T07:22:56;95237.34;;;2.55;92.48
47763;BME280;33526;42.690;23.322;2023-11-19T07:25:22;95243.22;;;2.57;91.93
47763;BME280;33526;42.690;23.322;2023-11-19T07:27:51;95247.97;;;2.56;90.99
47763;BME280;33526;42.690;23.322;2023-11-19T07:30:17;95256.72;;;2.51;92.02
47763;BME280;33526;42.690;23.322;2023-11-19T07:32:43;95251.09;;;2.58;91.44
47763;BME280;33526;42.690;23.322;2023-11-19T07:35:09;95268.53;;;2.52;91.05
47763;BME280;33526;42.690;23.322;2023-11-19T07:37:34;95279.81;;;2.64;90.32
47763;BME280;33526;42.690;23.322;2023-11-19T07:40:01;95269.63;;;2.61;91.04
47763;BME280;33526;42.690;23.322;2023-11-19T07:42:26;95267.50;;;2.73;90.42
47763;BME280;33526;42.690;23.322;2023-11-19T07:44:52;95277.81;;;2.68;89.26
47763;BME280;33526;42.690;23.322;2023-11-19T07:47:20;95273.09;;;2.65;89.75
47763;BME280;33526;42.690;23.322;2023-11-19T07:49:48;95254.97;;;2.64;89.26
47763;BME280;33526;42.690;23.322;2023-11-19T07:52:15;95268.44;;;2.59;88.77
47763;BME280;33526;42.690;23.322;2023-11-19T07:54:40;95280.38;;;2.52;90.29
47763;BME280;33526;42.690;23.322;2023-11-19T07:57:06;95275.59;;;2.56;89.58
47763;BME280;33526;42.690;23.322;2023-11-19T07:59:31;95274.78;;;2.59;89.35
47763;BME280;33526;42.690;23.322;2023-11-19T08:01:56;95269.97;;;2.63;90.76
47763;BME280;33526;42.690;23.322;2023-11-19T08:04:23;95280.13;;;2.70;88.44
47763;BME280;33526;42.690;23.322;2023-11-19T08:06:49;95283.41;;;2.61;89.54
47763;BME280;33526;42.690;23.322;2023-11-19T08:09:14;95279.38;;;2.70;88.67
47763;BME280;33526;42.690;23.322;2023-11-19T08:11:43;95273.59;;;2.91;87.30
47763;BME280;33526;42.690;23.322;2023-11-19T08:14:08;95273.59;;;2.91;85.87
47763;BME280;33526;42.690;23.322;2023-11-19T08:16:34;95295.03;;;2.80;87.53
47763;BME280;33526;42.690;23.322;2023-11-19T08:18:59;95293.56;;;2.68;87.47
47763;BME280;33526;42.690;23.322;2023-11-19T08:21:24;95295.94;;;2.70;87.98
47763;BME280;33526;42.690;23.322;2023-11-19T08:23:52;95305.34;;;2.76;87.04
47763;BME280;33526;42.690;23.322;2023-11-19T08:26:17;95297.50;;;2.71;86.92
47763;BME280;33526;42.690;23.322;2023-11-19T08:28:46;95305.88;;;2.63;87.58
47763;BME280;33526;42.690;23.322;2023-11-19T08:31:11;95302.28;;;2.66;88.95
47763;BME280;33526;42.690;23.322;2023-11-19T08:33:37;95300.09;;;2.85;88.15
47763;BME280;33526;42.690;23.322;2023-11-19T08:36:02;95305.25;;;2.83;85.95
47763;BME280;33526;42.690;23.322;2023-11-19T08:38:29;95300.63;;;2.73;88.04
47763;BME280;33526;42.690;23.322;2023-11-19T08:40:54;95303.94;;;2.60;89.28
47763;BME280;33526;42.690;23.322;2023-11-19T08:43:24;95316.31;;;2.83;86.78
47763;BME280;33526;42.690;23.322;2023-11-19T08:45:49;95312.78;;;2.79;86.14
47763;BME280;33526;42.690;23.322;2023-11-19T08:48:15;95305.19;;;2.90;86.00
47763;BME280;33526;42.690;23.322;2023-11-19T08:50:41;95311.06;;;2.92;85.53
47763;BME280;33526;42.690;23.322;2023-11-19T08:53:06;95311.06;;;2.92;84.68
47763;BME280;33526;42.690;23.322;2023-11-19T08:55:31;95304.97;;;3.08;83.40
47763;BME280;33526;42.690;23.322;2023-11-19T08:57:59;95317.44;;;3.20;81.85
47763;BME280;33526;42.690;23.322;2023-11-19T09:00:25;95303.94;;;3.25;83.09
47763;BME280;33526;42.690;23.322;2023-11-19T09:02:51;95310.25;;;3.26;80.69
47763;BME280;33526;42.690;23.322;2023-11-19T09:05:16;95290.06;;;3.29;81.16
47763;BME280;33526;42.690;23.322;2023-11-19T09:07:43;95295.38;;;3.43;82.52
47763;BME280;33526;42.690;23.322;2023-11-19T09:10:08;95299.63;;;3.52;83.25
47763;BME280;33526;42.690;23.322;2023-11-19T09:12:37;95289.25;;;3.59;82.11
47763;BME280;33526;42.690;23.322;2023-11-19T09:15:02;95283.53;;;3.70;83.20
47763;BME280;33526;42.690;23.322;2023-11-19T09:17:29;95291.22;;;3.59;80.71
47763;BME280;33526;42.690;23.322;2023-11-19T09:19:55;95279.00;;;3.29;80.43
47763;BME280;33526;42.690;23.322;2023-11-19T09:22:21;95302.97;;;3.39;81.77
47763;BME280;33526;42.690;23.322;2023-11-19T09:24:52;95309.13;;;3.20;81.48
47763;BME280;33526;42.690;23.322;2023-11-19T09:27:17;95303.66;;;3.16;82.34
47763;BME280;33526;42.690;23.322;2023-11-19T09:29:46;95312.56;;;3.28;83.18
47763;BME280;33526;42.690;23.322;2023-11-19T09:32:14;95308.59;;;3.32;83.05
47763;BME280;33526;42.690;23.322;2023-11-19T09:34:39;95289.66;;;3.31;82.78
47763;BME280;33526;42.690;23.322;2023-11-19T09:37:05;95291.06;;;3.42;81.72
47763;BME280;33526;42.690;23.322;2023-11-19T09:39:30;95287.94;;;3.40;79.74
47763;BME280;33526;42.690;23.322;2023-11-19T09:41:55;95277.78;;;3.34;79.68
47763;BME280;33526;42.690;23.322;2023-11-19T09:44:21;95269.88;;;3.32;81.76
47763;BME280;33526;42.690;23.322;2023-11-19T09:46:46;95269.53;;;3.30;80.92
47763;BME280;33526;42.690;23.322;2023-11-19T09:49:14;95259.66;;;3.29;80.23
47763;BME280;33526;42.690;23.322;2023-11-19T09:51:39;95241.31;;;3.42;80.59
47763;BME280;33526;42.690;23.322;2023-11-19T09:54:05;95237.91;;;3.58;78.90
47763;BME280;33526;42.690;23.322;2023-11-19T09:56:32;95236.56;;;3.43;78.14
47763;BME280;33526;42.690;23.322;2023-11-19T09:58:58;95239.75;;;3.41;78.15
47763;BME280;33526;42.690;23.322;2023-11-19T10:01:24;95243.44;;;3.31;78.52
47763;BME280;33526;42.690;23.322;2023-11-19T10:03:49;95229.63;;;3.31;78.95
47763;BME280;33526;42.690;23.322;2023-11-19T10:06:15;95242.09;;;3.43;79.60
47763;BME280;33526;42.690;23.322;2023-11-19T10:08:42;95235.09;;;3.35;79.24
47763;BME280;33526;42.690;23.322;2023-11-19T10:11:08;95240.41;;;3.49;79.38
47763;BME280;33526;42.690;23.322;2023-11-19T10:13:37;95237.13;;;3.58;79.00
47763;BME280;33526;42.690;23.322;2023-11-19T10:16:09;95225.59;;;3.63;79.57
47763;BME280;33526;42.690;23.322;2023-11-19T10:18:50;95241.88;;;3.57;78.43
47763;BME280;33526;42.690;23.322;2023-11-19T10:21:19;95251.06;;;3.74;78.70
47763;BME280;33526;42.690;23.322;2023-11-19T10:23:53;95242.06;;;3.94;77.62
47763;BME280;33526;42.690;23.322;2023-11-19T10:26:26;95244.59;;;3.85;76.18
47763;BME280;33526;42.690;23.322;2023-11-19T10:28:52;95241.00;;;3.88;76.46
47763;BME280;33526;42.690;23.322;2023-11-19T10:31:18;95229.22;;;3.83;78.66
47763;BME280;33526;42.690;23.322;2023-11-19T10:33:44;95229.28;;;3.53;79.48
47763;BME280;33526;42.690;23.322;2023-11-19T10:36:10;95219.34;;;3.82;79.31
47763;BME280;33526;42.690;23.322;2023-11-19T10:38:39;95211.16;;;3.99;77.66
47763;BME280;33526;42.690;23.322;2023-11-19T10:41:05;95211.97;;;4.19;77.45
47763;BME280;33526;42.690;23.322;2023-11-19T10:43:31;95219.88;;;3.97;76.63
47763;BME280;33526;42.690;23.322;2023-11-19T10:46:11;95227.22;;;3.84;76.71
47763;BME280;33526;42.690;23.322;2023-11-19T10:48:37;95221.56;;;3.91;75.46
47763;BME280;33526;42.690;23.322;2023-11-19T10:51:04;95223.88;;;3.96;74.77
47763;BME280;33526;42.690;23.322;2023-11-19T10:53:30;95225.66;;;3.83;77.23
47763;BME280;33526;42.690;23.322;2023-11-19T10:55:57;95220.41;;;3.89;76.02
47763;BME280;33526;42.690;23.322;2023-11-19T10:58:23;95220.00;;;3.90;75.56
47763;BME280;33526;42.690;23.322;2023-11-19T11:00:57;95205.63;;;3.99;75.40
47763;BME280;33526;42.690;23.322;2023-11-19T11:03:25;95222.13;;;3.82;76.92
47763;BME280;33526;42.690;23.322;2023-11-19T11:05:54;95201.47;;;3.63;77.80
47763;BME280;33526;42.690;23.322;2023-11-19T11:08:21;95191.91;;;3.92;77.05
47763;BME280;33526;42.690;23.322;2023-11-19T11:10:53;95181.06;;;4.01;75.38
47763;BME280;33526;42.690;23.322;2023-11-19T11:13:19;95182.66;;;4.02;74.59
47763;BME280;33526;42.690;23.322;2023-11-19T11:15:45;95188.75;;;4.13;74.56
47763;BME280;33526;42.690;23.322;2023-11-19T11:18:12;95180.13;;;4.31;72.30
47763;BME280;33526;42.690;23.322;2023-11-19T11:20:38;95168.91;;;4.38;71.93
47763;BME280;33526;42.690;23.322;2023-11-19T11:25:40;95181.09;;;4.41;72.11
47763;BME280;33526;42.690;23.322;2023-11-19T11:28:12;95189.28;;;4.48;70.12
47763;BME280;33526;42.690;23.322;2023-11-19T11:33:15;95172.00;;;4.60;68.64
47763;BME280;33526;42.690;23.322;2023-11-19T11:38:11;95187.78;;;4.24;69.60
47763;BME280;33526;42.690;23.322;2023-11-19T11:40:36;95169.88;;;4.28;70.23
47763;BME280;33526;42.690;23.322;2023-11-19T11:43:02;95168.34;;;4.27;69.99
47763;BME280;33526;42.690;23.322;2023-11-19T11:45:40;95146.75;;;4.18;69.82
47763;BME280;33526;42.690;23.322;2023-11-19T11:50:33;95154.50;;;4.27;68.50
47763;BME280;33526;42.690;23.322;2023-11-19T11:57:59;95155.84;;;4.39;70.16
47763;BME280;33526;42.690;23.322;2023-11-19T12:00:37;95166.34;;;4.28;71.03
47763;BME280;33526;42.690;23.322;2023-11-19T12:03:04;95165.22;;;4.45;70.16
47763;BME280;33526;42.690;23.322;2023-11-19T12:05:29;95155.00;;;4.42;70.46
47763;BME280;33526;42.690;23.322;2023-11-19T12:07:56;95152.97;;;4.63;70.69
47763;BME280;33526;42.690;23.322;2023-11-19T12:10:24;95157.19;;;4.31;71.29
47763;BME280;33526;42.690;23.322;2023-11-19T12:12:52;95146.84;;;4.35;72.04
47763;BME280;33526;42.690;23.322;2023-11-19T12:15:17;95143.06;;;4.45;69.91
47763;BME280;33526;42.690;23.322;2023-11-19T12:17:48;95144.75;;;4.39;71.20
47763;BME280;33526;42.690;23.322;2023-11-19T12:20:15;95133.31;;;4.57;71.43
47763;BME280;33526;42.690;23.322;2023-11-19T12:22:43;95134.66;;;4.69;71.02
47763;BME280;33526;42.690;23.322;2023-11-19T12:25:09;95125.66;;;4.45;70.83
47763;BME280;33526;42.690;23.322;2023-11-19T12:27:36;95124.78;;;4.68;70.99
47763;BME280;33526;42.690;23.322;2023-11-19T12:30:03;95123.34;;;4.79;69.51
47763;BME280;33526;42.690;23.322;2023-11-19T12:32:42;95127.97;;;4.86;69.76
47763;BME280;33526;42.690;23.322;2023-11-19T12:35:08;95121.75;;;4.62;69.87
47763;BME280;33526;42.690;23.322;2023-11-19T12:37:54;95108.03;;;4.91;72.23
47763;BME280;33526;42.690;23.322;2023-11-19T12:40:24;95112.38;;;5.09;68.57
47763;BME280;33526;42.690;23.322;2023-11-19T12:42:50;95113.28;;;5.22;68.17
47763;BME280;33526;42.690;23.322;2023-11-19T12:45:15;95107.03;;;5.34;68.20
47763;BME280;33526;42.690;23.322;2023-11-19T12:47:45;95092.59;;;5.72;65.25
47763;BME280;33526;42.690;23.322;2023-11-19T12:50:14;95096.63;;;5.55;63.85
47763;BME280;33526;42.690;23.322;2023-11-19T12:52:42;95090.91;;;5.29;66.53
47763;BME280;33526;42.690;23.322;2023-11-19T12:55:24;95098.34;;;5.00;67.57
47763;BME280;33526;42.690;23.322;2023-11-19T12:57:50;95098.31;;;4.67;68.54
47763;BME280;33526;42.690;23.322;2023-11-19T13:00:19;95106.66;;;4.83;69.14
47763;BME280;33526;42.690;23.322;2023-11-19T13:02:49;95086.13;;;4.81;70.21
47763;BME280;33526;42.690;23.322;2023-11-19T13:05:31;95083.50;;;4.73;69.47
47763;BME280;33526;42.690;23.322;2023-11-19T13:08:05;95088.16;;;4.60;70.85
47763;BME280;33526;42.690;23.322;2023-11-19T13:10:32;95086.19;;;4.77;72.13